createdAt,value
2019-05-23T00:00:40.749Z,126.47
2019-05-23T00:03:34.980Z,126.83
2019-05-23T00:06:24.064Z,126.07
2019-05-23T00:09:12.923Z,125.27
2019-05-23T00:11:49.205Z,126.10
2019-05-23T00:14:37.531Z,124.60
2019-05-23T00:17:11.985Z,125.67
2019-05-23T00:19:41.857Z,126.90
2019-05-23T00:22:12.646Z,127.27
2019-05-23T00:24:42.944Z,126.23
2019-05-23T00:27:14.304Z,129.23
2019-05-23T00:29:44.766Z,127.93
2019-05-23T00:32:45.898Z,129.13
2019-05-23T00:35:19.379Z,125.03
2019-05-23T00:37:51.139Z,126.47
2019-05-23T00:40:20.947Z,125.57
2019-05-23T00:42:51.606Z,125.77
2019-05-23T00:45:23.277Z,125.70
2019-05-23T00:47:54.907Z,125.00
2019-05-23T00:50:27.626Z,126.03
2019-05-23T00:52:57.513Z,126.43
2019-05-23T00:55:28.708Z,126.10
2019-05-23T00:57:59.456Z,125.47
2019-05-23T01:00:29.966Z,125.77
2019-05-23T01:02:59.859Z,125.97
2019-05-23T01:05:31.035Z,125.53
2019-05-23T01:08:01.553Z,125.80
2019-05-23T01:10:33.328Z,126.50
2019-05-23T01:13:05.363Z,125.57
2019-05-23T01:15:35.667Z,126.60
2019-05-23T01:18:06.360Z,126.23
2019-05-23T01:20:57.810Z,126.13
2019-05-23T01:23:29.007Z,124.80
2019-05-23T01:25:58.726Z,125.40
2019-05-23T01:28:28.611Z,125.70
2019-05-23T01:31:00.114Z,125.10
2019-05-23T01:33:30.708Z,125.17
2019-05-23T01:36:00.967Z,126.80
2019-05-23T01:38:31.747Z,125.87
2019-05-23T01:41:01.745Z,126.03
2019-05-23T01:43:32.221Z,125.97
2019-05-23T01:46:02.505Z,125.70
2019-05-23T01:48:32.518Z,125.63
2019-05-23T01:51:02.314Z,125.07
2019-05-23T01:53:32.425Z,126.03
2019-05-23T01:56:02.135Z,125.30
2019-05-23T01:58:31.843Z,125.27
2019-05-23T02:01:02.245Z,125.20
2019-05-23T02:03:31.879Z,125.23
2019-05-23T02:06:02.028Z,125.97
2019-05-23T02:08:31.852Z,125.10
2019-05-23T02:11:01.842Z,126.27
2019-05-23T02:13:32.387Z,125.43
2019-05-23T02:16:02.090Z,124.97
2019-05-23T02:18:32.114Z,127.33
2019-05-23T02:21:02.026Z,125.47
2019-05-23T02:23:32.064Z,125.73
2019-05-23T02:26:02.346Z,125.47
2019-05-23T02:28:32.843Z,125.57
2019-05-23T02:31:02.625Z,127.37
2019-05-23T02:33:32.343Z,126.10
2019-05-23T02:36:02.055Z,125.63
2019-05-23T02:38:47.810Z,126.20
2019-05-23T02:41:33.837Z,124.87
2019-05-23T02:44:08.816Z,126.30
2019-05-23T02:46:50.028Z,126.43
2019-05-23T02:49:22.933Z,125.30
2019-05-23T02:51:55.472Z,128.47
2019-05-23T02:54:29.230Z,126.17
2019-05-23T02:57:01.132Z,125.23
2019-05-23T02:59:41.107Z,125.30
2019-05-23T03:02:43.383Z,125.93
2019-05-23T03:05:14.714Z,126.80
2019-05-23T03:07:45.044Z,126.40
2019-05-23T03:10:18.611Z,125.47
2019-05-23T03:12:49.391Z,124.97
2019-05-23T03:15:19.308Z,128.00
2019-05-23T03:17:52.516Z,125.67
2019-05-23T03:20:22.200Z,125.67
2019-05-23T03:22:56.133Z,125.27
2019-05-23T03:26:19.778Z,125.33
2019-05-23T03:28:50.027Z,125.37
2019-05-23T03:31:31.963Z,126.03
2019-05-23T03:34:00.964Z,125.83
2019-05-23T03:36:30.878Z,125.37
2019-05-23T03:39:01.866Z,124.63
2019-05-23T03:41:32.851Z,125.73
2019-05-23T03:44:03.041Z,125.33
2019-05-23T03:46:34.334Z,124.90
2019-05-23T03:49:05.286Z,124.90
2019-05-23T03:51:36.392Z,126.73
2019-05-23T03:54:06.295Z,127.03
2019-05-23T03:56:36.104Z,125.47
2019-05-23T03:59:07.519Z,126.77
2019-05-23T04:01:48.077Z,125.67
2019-05-23T04:04:08.983Z,125.33
2019-05-23T04:06:38.875Z,125.83
2019-05-23T04:09:10.566Z,125.33
2019-05-23T04:11:40.476Z,125.67
2019-05-23T04:14:10.452Z,125.87
2019-05-23T04:16:41.212Z,126.63
2019-05-23T04:19:11.581Z,125.23
2019-05-23T04:21:41.216Z,124.73
2019-05-23T04:24:11.168Z,127.33
2019-05-23T04:26:41.440Z,127.63
2019-05-23T04:29:11.351Z,126.63
2019-05-23T04:31:40.980Z,127.57
2019-05-23T04:34:10.689Z,125.63
2019-05-23T04:36:40.869Z,125.60
2019-05-23T04:39:10.593Z,125.00
2019-05-23T04:41:40.352Z,126.00
2019-05-23T04:44:10.632Z,127.00
2019-05-23T04:46:40.293Z,127.43
2019-05-23T04:49:10.974Z,124.60
2019-05-23T04:51:41.361Z,125.63
2019-05-23T04:54:11.631Z,125.57
2019-05-23T04:56:41.450Z,125.67
2019-05-23T04:59:11.229Z,125.33
2019-05-23T05:01:41.041Z,125.00
2019-05-23T05:04:11.200Z,124.57
2019-05-23T05:06:40.846Z,131.50
2019-05-23T05:09:12.980Z,126.77
2019-05-23T05:11:42.776Z,125.93
2019-05-23T05:14:12.660Z,126.07
2019-05-23T05:16:42.316Z,126.73
2019-05-23T05:19:11.946Z,128.43
2019-05-23T05:21:41.584Z,126.90
2019-05-23T05:24:11.375Z,127.30
2019-05-23T05:26:41.021Z,127.37
2019-05-23T05:29:10.643Z,128.17
2019-05-23T05:31:40.351Z,132.90
2019-05-23T05:34:09.985Z,126.23
2019-05-23T05:36:40.268Z,127.33
2019-05-23T05:39:11.858Z,126.40
2019-05-23T05:41:42.183Z,125.00
2019-05-23T05:44:12.141Z,127.30
2019-05-23T05:46:41.847Z,126.20
2019-05-23T05:49:12.033Z,126.37
2019-05-23T05:51:42.185Z,128.50
2019-05-23T05:54:12.185Z,128.40
2019-05-23T05:56:41.827Z,129.47
2019-05-23T05:59:11.464Z,132.33
2019-05-23T06:01:41.339Z,136.37
2019-05-23T06:04:11.112Z,129.03
2019-05-23T06:06:45.955Z,134.23
2019-05-23T06:09:18.647Z,129.77
2019-05-23T06:11:48.335Z,130.90
2019-05-23T06:14:18.319Z,130.90
2019-05-23T06:16:48.181Z,129.70
2019-05-23T06:19:18.143Z,130.53
2019-05-23T06:21:47.850Z,129.37
2019-05-23T06:24:17.562Z,129.97
2019-05-23T06:26:47.380Z,134.43
2019-05-23T06:29:17.207Z,130.30
2019-05-23T06:31:47.865Z,127.90
2019-05-23T06:34:18.826Z,130.90
2019-05-23T06:36:48.988Z,127.47
2019-05-23T06:39:18.638Z,126.83
2019-05-23T06:41:48.532Z,130.30
2019-05-23T06:44:18.923Z,129.43
2019-05-23T06:46:48.746Z,127.33
2019-05-23T06:49:18.457Z,128.60
2019-05-23T06:51:48.087Z,128.40
2019-05-23T06:54:18.080Z,128.97
2019-05-23T06:56:47.854Z,130.37
2019-05-23T06:59:17.842Z,132.40
2019-05-23T07:01:47.548Z,130.20
2019-05-23T07:04:17.380Z,138.23
2019-05-23T07:06:47.765Z,135.50
2019-05-23T07:09:19.647Z,131.43
2019-05-23T07:11:50.625Z,129.97
2019-05-23T07:14:20.695Z,127.67
2019-05-23T07:16:50.531Z,129.97
2019-05-23T07:19:21.091Z,131.93
2019-05-23T07:21:50.730Z,129.60
2019-05-23T07:24:20.372Z,132.20
2019-05-23T07:26:50.117Z,130.37
2019-05-23T07:29:20.144Z,128.57
2019-05-23T07:31:50.158Z,137.07
2019-05-23T07:34:21.064Z,134.60
2019-05-23T07:36:54.831Z,129.33
2019-05-23T07:39:24.616Z,131.17
2019-05-23T07:41:54.434Z,133.20
2019-05-23T07:44:25.227Z,132.53
2019-05-23T07:46:55.000Z,133.80
2019-05-23T07:49:24.730Z,128.37
2019-05-23T07:51:54.434Z,127.40
2019-05-23T07:54:30.112Z,129.50
2019-05-23T07:57:00.901Z,133.80
2019-05-23T07:59:30.834Z,129.93
2019-05-23T08:02:09.836Z,129.23
2019-05-23T08:04:39.583Z,129.17
2019-05-23T08:07:10.870Z,131.90
2019-05-23T08:09:40.899Z,137.47
2019-05-23T08:12:11.665Z,136.63
2019-05-23T08:14:41.380Z,132.07
2019-05-23T08:17:11.663Z,134.30
2019-05-23T08:19:49.476Z,131.90
2019-05-23T08:22:12.940Z,128.47
2019-05-23T08:24:42.771Z,132.97
2019-05-23T08:27:12.692Z,132.03
2019-05-23T08:29:42.407Z,131.27
2019-05-23T08:32:13.766Z,132.83
2019-05-23T08:34:43.843Z,134.87
2019-05-23T08:37:16.642Z,129.13
2019-05-23T08:39:46.719Z,128.83
2019-05-23T08:42:16.929Z,128.50
2019-05-23T08:44:47.322Z,129.33
2019-05-23T08:47:18.288Z,134.10
2019-05-23T08:49:48.167Z,129.40
2019-05-23T08:52:17.886Z,130.20
2019-05-23T08:54:48.868Z,127.77
2019-05-23T08:57:18.891Z,131.00
2019-05-23T08:59:49.136Z,138.10
2019-05-23T09:02:20.654Z,130.10
2019-05-23T09:05:03.573Z,130.33
2019-05-23T09:07:22.742Z,129.40
2019-05-23T09:09:52.467Z,128.70
2019-05-23T09:12:22.261Z,128.97
2019-05-23T09:14:52.718Z,135.60
2019-05-23T09:17:22.630Z,127.77
2019-05-23T09:19:52.433Z,127.80
2019-05-23T09:22:22.517Z,130.37
2019-05-23T09:24:52.919Z,128.90
2019-05-23T09:27:22.813Z,131.27
2019-05-23T09:29:52.716Z,129.50
2019-05-23T09:32:22.491Z,128.20
2019-05-23T09:34:52.279Z,132.70
2019-05-23T09:37:22.095Z,132.30
2019-05-23T09:39:52.007Z,129.47
2019-05-23T09:42:21.654Z,129.30
2019-05-23T09:44:51.726Z,128.70
2019-05-23T09:47:21.488Z,127.40
2019-05-23T09:49:54.482Z,131.33
2019-05-23T09:52:24.304Z,131.23
2019-05-23T09:54:54.166Z,127.80
2019-05-23T09:57:24.168Z,128.60
2019-05-23T09:59:56.892Z,129.37
2019-05-23T10:02:26.986Z,131.43
2019-05-23T10:04:57.051Z,128.77
2019-05-23T10:07:26.859Z,132.67
2019-05-23T10:09:56.484Z,128.23
2019-05-23T10:12:26.199Z,127.57
2019-05-23T10:14:55.825Z,129.10
2019-05-23T10:17:25.979Z,130.30
2019-05-23T10:19:55.711Z,127.60
2019-05-23T10:22:25.428Z,128.87
2019-05-23T10:24:55.050Z,129.20
2019-05-23T10:27:24.855Z,129.77
2019-05-23T10:29:54.635Z,128.37
2019-05-23T10:32:25.064Z,128.10
2019-05-23T10:34:55.032Z,128.97
2019-05-23T10:37:24.738Z,128.40
2019-05-23T10:39:55.631Z,129.27
2019-05-23T10:42:27.554Z,128.13
2019-05-23T10:44:57.260Z,128.57
2019-05-23T10:47:27.270Z,127.47
2019-05-23T10:49:57.131Z,128.30
2019-05-23T10:52:26.991Z,130.60
2019-05-23T10:54:56.792Z,127.53
2019-05-23T10:57:26.744Z,128.83
2019-05-23T10:59:56.699Z,129.30
2019-05-23T11:02:27.241Z,127.83
2019-05-23T11:04:57.531Z,130.73
2019-05-23T11:07:28.022Z,128.43
2019-05-23T11:09:57.924Z,128.77
2019-05-23T11:12:27.619Z,128.47
2019-05-23T11:14:57.433Z,128.83
2019-05-23T11:17:27.063Z,132.47
2019-05-23T11:19:56.810Z,190.10
2019-05-23T11:22:26.802Z,194.37
2019-05-23T11:24:56.705Z,171.80
2019-05-23T11:27:26.523Z,183.40
2019-05-23T11:29:56.707Z,162.17
2019-05-23T11:32:26.497Z,160.80
2019-05-23T11:34:56.130Z,157.63
2019-05-23T11:37:26.268Z,158.80
2019-05-23T11:39:56.098Z,155.10
2019-05-23T11:42:25.829Z,156.60
2019-05-23T11:44:55.544Z,154.77
2019-05-23T11:47:26.157Z,155.30
2019-05-23T11:49:55.935Z,157.30
2019-05-23T11:52:26.845Z,156.43
2019-05-23T11:54:56.720Z,158.00
2019-05-23T11:57:26.593Z,165.10
2019-05-23T11:59:56.388Z,166.33
2019-05-23T12:02:39.359Z,161.73
2019-05-23T12:05:13.212Z,157.60
2019-05-23T12:07:42.939Z,157.77
2019-05-23T12:10:14.347Z,158.40
2019-05-23T12:12:44.076Z,161.80
2019-05-23T12:15:19.624Z,158.40
2019-05-23T12:17:49.824Z,158.93
2019-05-23T12:20:19.605Z,162.17
2019-05-23T12:22:49.370Z,158.70
2019-05-23T12:25:22.640Z,159.10
2019-05-23T12:27:50.674Z,161.77
2019-05-23T12:30:21.750Z,155.33
2019-05-23T12:32:51.389Z,157.77
2019-05-23T12:35:21.103Z,160.80
2019-05-23T12:37:50.840Z,159.40
2019-05-23T12:40:20.687Z,159.73
2019-05-23T12:42:50.346Z,156.87
2019-05-23T12:45:20.785Z,162.17
2019-05-23T12:47:58.114Z,163.57
2019-05-23T12:50:32.108Z,167.30
2019-05-23T12:53:02.114Z,166.70
2019-05-23T12:55:32.110Z,157.80
2019-05-23T12:58:02.046Z,158.83
2019-05-23T13:00:38.847Z,168.37
2019-05-23T13:03:08.918Z,156.63
2019-05-23T13:05:39.597Z,152.80
2019-05-23T13:08:09.488Z,152.93
2019-05-23T13:10:39.276Z,152.97
2019-05-23T13:13:09.084Z,152.93
2019-05-23T13:15:39.535Z,154.57
2019-05-23T13:18:09.322Z,152.17
2019-05-23T13:20:39.225Z,152.63
2019-05-23T13:23:10.645Z,155.03
2019-05-23T13:25:40.811Z,154.83
2019-05-23T13:28:10.458Z,150.57
2019-05-23T13:30:40.552Z,151.40
2019-05-23T13:33:10.608Z,152.97
2019-05-23T13:35:40.694Z,150.80
2019-05-23T13:38:10.339Z,150.20
2019-05-23T13:40:39.975Z,150.90
2019-05-23T13:43:09.699Z,150.30
2019-05-23T13:45:39.478Z,151.93
2019-05-23T13:48:09.200Z,155.33
2019-05-23T13:50:39.201Z,152.17
2019-05-23T13:53:09.251Z,152.37
2019-05-23T13:55:39.082Z,152.17
2019-05-23T13:58:08.879Z,152.00
2019-05-23T14:00:38.947Z,155.20
2019-05-23T14:03:08.844Z,151.40
2019-05-23T14:05:39.370Z,155.10
2019-05-23T14:08:12.743Z,152.03
2019-05-23T14:10:40.877Z,150.77
2019-05-23T14:13:10.595Z,153.47
2019-05-23T14:15:43.046Z,154.03
2019-05-23T14:18:15.610Z,155.80
2019-05-23T14:20:45.376Z,153.80
2019-05-23T14:23:30.919Z,160.23
2019-05-23T14:26:01.213Z,160.23
2019-05-23T14:28:33.914Z,153.47
2019-05-23T14:31:17.470Z,150.60
2019-05-23T14:33:50.288Z,157.47
2019-05-23T14:36:42.134Z,157.53
2019-05-23T14:39:40.312Z,154.90
2019-05-23T14:42:28.584Z,154.83
2019-05-23T14:44:58.431Z,156.90
2019-05-23T14:47:50.839Z,160.50
2019-05-23T14:50:39.116Z,170.50
2019-05-23T14:53:09.739Z,162.77
2019-05-23T14:55:39.451Z,157.00
2019-05-23T14:58:09.187Z,157.13
2019-05-23T15:00:39.444Z,171.83
2019-05-23T15:03:09.520Z,157.83
2019-05-23T15:05:39.175Z,156.37
2019-05-23T15:08:08.927Z,163.87
2019-05-23T15:10:38.701Z,158.67
2019-05-23T15:13:08.422Z,158.13
2019-05-23T15:15:38.175Z,172.67
2019-05-23T15:18:08.568Z,159.17
2019-05-23T15:20:38.215Z,162.50
2019-05-23T15:23:08.127Z,157.37
2019-05-23T15:25:37.767Z,170.73
2019-05-23T15:28:08.107Z,159.93
2019-05-23T15:30:37.989Z,157.03
2019-05-23T15:33:07.768Z,172.53
2019-05-23T15:35:38.032Z,163.07
2019-05-23T15:38:07.849Z,158.73
2019-05-23T15:40:37.603Z,178.83
2019-05-23T15:43:09.708Z,155.90
2019-05-23T15:45:38.927Z,154.30
2019-05-23T15:48:08.641Z,157.80
2019-05-23T15:50:43.473Z,155.10
2019-05-23T15:53:29.722Z,154.20
2019-05-23T15:56:26.047Z,156.83
2019-05-23T15:58:44.768Z,158.90
2019-05-23T16:01:17.847Z,161.97
2019-05-23T16:03:52.945Z,182.57
2019-05-23T16:06:25.155Z,162.10
2019-05-23T16:08:54.856Z,157.67
2019-05-23T16:11:24.899Z,160.13
2019-05-23T16:13:54.604Z,161.03
2019-05-23T16:16:25.820Z,161.30
2019-05-23T16:18:55.703Z,160.07
2019-05-23T16:21:25.836Z,161.47
2019-05-23T16:23:55.627Z,159.33
2019-05-23T16:26:25.408Z,161.30
2019-05-23T16:28:55.050Z,157.57
2019-05-23T16:31:24.692Z,155.70
2019-05-23T16:33:54.456Z,169.27
2019-05-23T16:36:24.278Z,165.00
2019-05-23T16:38:53.992Z,158.40
2019-05-23T16:41:23.856Z,162.80
2019-05-23T16:43:53.646Z,164.17
2019-05-23T16:46:23.477Z,150.87
2019-05-23T16:48:53.366Z,153.20
2019-05-23T16:51:23.133Z,153.17
2019-05-23T16:53:53.136Z,151.03
2019-05-23T16:56:31.091Z,150.63
2019-05-23T16:59:13.037Z,151.20
2019-05-23T17:01:59.120Z,153.43
2019-05-23T17:05:09.300Z,152.03
2019-05-23T17:07:42.979Z,154.33
2019-05-23T17:10:21.166Z,151.50
2019-05-23T17:13:19.040Z,153.93
2019-05-23T17:16:06.580Z,157.30
2019-05-23T17:19:04.470Z,158.23
2019-05-23T17:21:51.730Z,156.03
2019-05-23T17:24:40.524Z,155.00
2019-05-23T17:27:28.011Z,154.60
2019-05-23T17:30:08.022Z,153.43
2019-05-23T17:32:35.686Z,171.80
2019-05-23T17:35:05.939Z,150.80
2019-05-23T17:37:36.106Z,152.23
2019-05-23T17:40:06.252Z,154.60
2019-05-23T17:42:35.973Z,175.07
2019-05-23T17:45:05.950Z,158.53
2019-05-23T17:47:36.243Z,153.07
2019-05-23T17:50:06.321Z,155.03
2019-05-23T17:52:36.031Z,153.37
2019-05-23T17:55:06.315Z,162.47
2019-05-23T17:57:36.394Z,201.63
2019-05-23T18:00:06.705Z,181.17
2019-05-23T18:02:36.831Z,181.00
2019-05-23T18:05:07.178Z,179.87
2019-05-23T18:07:38.047Z,172.17
2019-05-23T18:10:08.055Z,172.30
2019-05-23T18:12:37.719Z,195.30
2019-05-23T18:15:10.891Z,174.33
2019-05-23T18:17:41.784Z,170.23
2019-05-23T18:20:13.156Z,172.20
2019-05-23T18:22:42.797Z,165.37
2019-05-23T18:25:13.060Z,166.00
2019-05-23T18:27:43.067Z,164.93
2019-05-23T18:30:22.523Z,166.53
2019-05-23T18:32:53.078Z,167.20
2019-05-23T18:35:23.646Z,165.27
2019-05-23T18:37:54.342Z,164.23
2019-05-23T18:40:24.111Z,169.33
2019-05-23T18:42:54.199Z,160.60
2019-05-23T18:45:24.444Z,161.90
2019-05-23T18:47:54.080Z,164.33
2019-05-23T18:50:24.331Z,161.70
2019-05-23T18:52:54.157Z,161.20
2019-05-23T18:55:24.072Z,163.87
2019-05-23T18:57:54.027Z,163.27
2019-05-23T19:01:13.742Z,163.03
2019-05-23T19:03:43.652Z,164.93
2019-05-23T19:06:13.414Z,167.27
2019-05-23T19:08:43.257Z,166.77
2019-05-23T19:11:20.790Z,164.20
2019-05-23T19:13:44.770Z,163.37
2019-05-23T19:16:14.534Z,161.43
2019-05-23T19:18:44.364Z,163.83
2019-05-23T19:21:14.748Z,184.43
2019-05-23T19:23:44.823Z,162.57
2019-05-23T19:26:15.407Z,163.63
2019-05-23T19:28:46.771Z,160.03
2019-05-23T19:31:16.743Z,160.23
2019-05-23T19:33:47.809Z,158.70
2019-05-23T19:36:17.893Z,160.23
2019-05-23T19:38:47.780Z,160.70
2019-05-23T19:41:17.731Z,161.10
2019-05-23T19:43:48.381Z,161.53
2019-05-23T19:46:18.326Z,161.90
2019-05-23T19:48:48.497Z,159.33
2019-05-23T19:51:18.668Z,159.63
2019-05-23T19:53:49.262Z,159.53
2019-05-23T19:56:19.310Z,160.60
2019-05-23T19:58:48.951Z,164.00
2019-05-23T20:01:18.652Z,162.57
2019-05-23T20:03:48.527Z,162.00
2019-05-23T20:06:18.750Z,163.17
2019-05-23T20:08:49.855Z,166.03
2019-05-23T20:11:19.559Z,161.23
2019-05-23T20:13:49.202Z,161.73
2019-05-23T20:16:18.903Z,163.53
2019-05-23T20:18:49.984Z,164.97
2019-05-23T20:21:20.184Z,165.17
2019-05-23T20:23:49.903Z,159.77
2019-05-23T20:26:19.842Z,160.27
2019-05-23T20:28:49.630Z,163.60
2019-05-23T20:31:19.439Z,161.80
2019-05-23T20:33:49.156Z,158.93
2019-05-23T20:36:19.191Z,159.97
2019-05-23T20:38:48.842Z,160.67
2019-05-23T20:41:18.734Z,157.97
2019-05-23T20:43:48.371Z,160.17
2019-05-23T20:46:19.444Z,160.00
2019-05-23T20:48:49.259Z,160.77
2019-05-23T20:51:19.083Z,161.70
2019-05-23T20:53:48.931Z,160.40
2019-05-23T20:56:18.666Z,161.13
2019-05-23T20:58:48.540Z,157.43
2019-05-23T21:01:23.244Z,163.63
2019-05-23T21:03:54.500Z,158.90
2019-05-23T21:06:24.135Z,159.50
2019-05-23T21:08:54.809Z,179.00
2019-05-23T21:11:24.620Z,161.73
2019-05-23T21:13:54.499Z,166.50
2019-05-23T21:16:25.249Z,156.40
2019-05-23T21:18:54.943Z,158.37
2019-05-23T21:21:24.578Z,157.30
2019-05-23T21:23:56.864Z,158.33
2019-05-23T21:26:25.632Z,157.27
2019-05-23T21:28:56.330Z,156.07
2019-05-23T21:31:26.364Z,158.47
2019-05-23T21:33:56.234Z,161.93
2019-05-23T21:36:25.872Z,157.70
2019-05-23T21:38:55.499Z,156.13
2019-05-23T21:41:25.144Z,156.17
2019-05-23T21:43:56.806Z,155.17
2019-05-23T21:46:26.531Z,159.30
2019-05-23T21:48:56.199Z,162.03
2019-05-23T21:51:26.063Z,158.07
2019-05-23T21:53:55.768Z,158.97
2019-05-23T21:56:25.488Z,157.63
2019-05-23T21:58:55.179Z,157.70
2019-05-23T22:01:59.418Z,158.90
2019-05-23T22:04:35.424Z,157.47
2019-05-23T22:07:06.454Z,157.00
2019-05-23T22:09:36.503Z,161.67
2019-05-23T22:12:08.787Z,158.37
2019-05-23T22:14:39.267Z,155.13
2019-05-23T22:17:08.915Z,152.93
2019-05-23T22:19:38.547Z,156.67
2019-05-23T22:22:08.359Z,155.40
2019-05-23T22:24:38.067Z,159.17
2019-05-23T22:27:09.607Z,157.80
2019-05-23T22:29:39.351Z,158.30
2019-05-23T22:32:10.351Z,157.83
2019-05-23T22:34:44.922Z,155.07
2019-05-23T22:37:23.388Z,155.43
2019-05-23T22:39:53.286Z,155.67
2019-05-23T22:42:24.902Z,155.43
2019-05-23T22:44:54.598Z,157.50
2019-05-23T22:47:25.459Z,156.53
2019-05-23T22:49:55.165Z,155.47
2019-05-23T22:52:24.790Z,155.70
2019-05-23T22:54:54.425Z,154.53
2019-05-23T22:57:24.135Z,155.83
2019-05-23T22:59:53.758Z,156.13
2019-05-23T23:02:24.504Z,162.53
2019-05-23T23:04:54.312Z,159.17
2019-05-23T23:07:24.084Z,159.27
2019-05-23T23:09:53.794Z,157.37
2019-05-23T23:12:23.430Z,158.27
2019-05-23T23:14:53.147Z,155.77
2019-05-23T23:17:22.863Z,163.40
2019-05-23T23:19:53.463Z,156.97
2019-05-23T23:22:23.199Z,157.27
2019-05-23T23:24:53.419Z,156.03
2019-05-23T23:27:23.055Z,155.57
2019-05-23T23:29:52.683Z,157.27
2019-05-23T23:32:22.464Z,160.33
2019-05-23T23:34:52.314Z,155.77
2019-05-23T23:37:22.995Z,153.13
2019-05-23T23:39:52.630Z,154.03
2019-05-23T23:42:22.316Z,151.53
2019-05-23T23:44:51.216Z,150.80
2019-05-23T23:47:38.357Z,151.53
2019-05-23T23:50:26.295Z,162.43
2019-05-23T23:53:13.504Z,155.00
2019-05-23T23:56:00.952Z,155.00
2019-05-23T23:58:29.863Z,153.90
